KFTY/FTY METAR and TAF weather

Enter ICAO airport designator
Station Type Date Time Source
KFTY METAR 2020/04/05 15:53 UTC NOAA

KFTY 051553Z 06003KT 10SM OVC100 21/12 A3007 RMK AO2 SLP178 T02060117


Station Type Date Time Source
KFTY Decoded METAR 2020/04/05 15:53 UTC NOAA

ATLANTA FULTON COUNTY AIRPORT , GA, United States (KFTY) 33-47N 84-31W 263M
Apr 05, 2020 - 11:53 AM EDT / 2020.04.05 1553 UTC
Wind: from the ENE (060 degrees) at 3 MPH (3 KT):0
Visibility: 10 mile(s):0
Sky conditions: overcast
Temperature: 69.1 F (20.6 C)
Dew Point: 53.1 F (11.7 C)
Relative Humidity: 56%
Pressure (altimeter): 30.07 in. Hg (1018 hPa)
ob: KFTY 051553Z 06003KT 10SM OVC100 21/12 A3007 RMK AO2 SLP178 T02060117
cycle: 16

Station Type Date Time Source
KFTY TAF 2020/04/05 16:54 UTC NOAA

TAF
AMD KFTY 051553Z 0516/0612 07004KT P6SM BKN090
FM051800 17004KT P6SM SCT250

Example: see airport list